createdAt,value
2024-03-02T00:00:15.887Z,7.95
2024-03-02T00:02:42.854Z,8.38
2024-03-02T00:05:11.964Z,8.40
2024-03-02T00:07:38.346Z,8.18
2024-03-02T00:10:09.169Z,8.77
2024-03-02T00:12:35.784Z,9.48
2024-03-02T00:15:02.146Z,7.63
2024-03-02T00:17:28.499Z,8.45
2024-03-02T00:19:54.788Z,8.23
2024-03-02T00:22:21.171Z,8.25
2024-03-02T00:24:47.726Z,8.13
2024-03-02T00:27:15.454Z,7.72
2024-03-02T00:29:42.326Z,7.88
2024-03-02T00:32:13.586Z,7.30
2024-03-02T00:34:40.130Z,8.48
2024-03-02T00:37:06.690Z,7.95
2024-03-02T00:39:33.280Z,8.13
2024-03-02T00:42:00.005Z,7.85
2024-03-02T00:44:26.883Z,7.88
2024-03-02T00:46:53.680Z,7.65
2024-03-02T00:49:22.111Z,8.75
2024-03-02T00:51:49.836Z,7.40
2024-03-02T00:54:16.638Z,8.02
2024-03-02T00:56:43.227Z,9.52
2024-03-02T00:59:11.357Z,8.90
2024-03-02T01:01:37.703Z,9.32
2024-03-02T01:04:04.811Z,8.05
2024-03-02T01:06:31.460Z,8.77
2024-03-02T01:08:57.794Z,7.35
2024-03-02T01:11:24.479Z,8.13
2024-03-02T01:13:51.102Z,7.82
2024-03-02T01:16:17.420Z,8.55
2024-03-02T01:18:43.990Z,9.18
2024-03-02T01:21:10.418Z,9.20
2024-03-02T01:23:36.953Z,9.15
2024-03-02T01:26:03.325Z,9.38
2024-03-02T01:28:29.602Z,8.85
2024-03-02T01:30:56.100Z,8.80
2024-03-02T01:33:22.564Z,8.50
2024-03-02T01:35:49.293Z,8.52
2024-03-02T01:38:15.599Z,8.32
2024-03-02T01:40:43.230Z,8.70
2024-03-02T01:43:09.547Z,8.75
2024-03-02T01:45:36.522Z,8.13
2024-03-02T01:48:03.220Z,7.85
2024-03-02T01:50:30.531Z,14.23
2024-03-02T01:52:57.529Z,22.83
2024-03-02T01:55:23.994Z,20.45
2024-03-02T01:57:51.183Z,10.27
2024-03-02T02:00:17.788Z,14.25
2024-03-02T02:02:44.345Z,19.48
2024-03-02T02:05:10.699Z,13.40
2024-03-02T02:07:37.240Z,12.27
2024-03-02T02:10:03.967Z,10.52
2024-03-02T02:12:30.541Z,10.25
2024-03-02T02:14:57.107Z,9.98
2024-03-02T02:17:23.439Z,10.00
2024-03-02T02:19:49.994Z,10.73
2024-03-02T02:22:16.508Z,8.85
2024-03-02T02:24:42.957Z,10.68
2024-03-02T02:27:09.775Z,10.13
2024-03-02T02:29:36.118Z,9.75
2024-03-02T02:32:02.454Z,9.07
2024-03-02T02:34:28.820Z,9.07
2024-03-02T02:36:55.518Z,10.55
2024-03-02T02:39:22.718Z,9.30
2024-03-02T02:41:49.326Z,9.77
2024-03-02T02:44:15.649Z,9.45
2024-03-02T02:46:42.277Z,9.35
2024-03-02T02:49:08.678Z,8.63
2024-03-02T02:51:35.079Z,8.98
2024-03-02T02:54:01.617Z,9.55
2024-03-02T02:56:28.224Z,8.57
2024-03-02T02:58:54.506Z,9.18
2024-03-02T03:04:30.032Z,9.07
2024-03-02T03:06:56.628Z,9.82
2024-03-02T03:09:23.008Z,8.32
2024-03-02T03:11:49.541Z,8.48
2024-03-02T03:14:15.836Z,8.65
2024-03-02T03:16:42.112Z,8.90
2024-03-02T03:19:08.657Z,8.52
2024-03-02T03:21:35.319Z,8.50
2024-03-02T03:24:01.609Z,8.05
2024-03-02T03:26:27.950Z,9.20
2024-03-02T03:28:54.258Z,9.88
2024-03-02T03:31:20.537Z,8.93
2024-03-02T03:33:47.116Z,9.30
2024-03-02T03:36:13.416Z,8.82
2024-03-02T03:38:39.786Z,7.40
2024-03-02T03:41:06.058Z,8.43
2024-03-02T03:43:32.657Z,8.05
2024-03-02T03:45:59.304Z,8.63
2024-03-02T03:48:25.939Z,10.43
2024-03-02T03:50:52.237Z,9.60
2024-03-02T03:53:18.792Z,8.50
2024-03-02T03:55:45.097Z,9.52
2024-03-02T03:58:11.393Z,9.10
2024-03-02T04:00:38.047Z,8.52
2024-03-02T04:03:04.767Z,10.02
2024-03-02T04:05:31.095Z,8.50
2024-03-02T04:07:57.620Z,8.88
2024-03-02T04:10:23.952Z,8.35
2024-03-02T04:12:50.648Z,9.95
2024-03-02T04:15:17.128Z,9.57
2024-03-02T04:17:43.764Z,9.30
2024-03-02T04:20:10.361Z,8.90
2024-03-02T04:22:36.888Z,8.55
2024-03-02T04:25:03.836Z,9.48
2024-03-02T04:27:30.229Z,8.50
2024-03-02T04:29:56.836Z,9.02
2024-03-02T04:32:23.114Z,8.35
2024-03-02T04:34:49.417Z,8.45
2024-03-02T04:37:16.017Z,8.00
2024-03-02T04:39:42.607Z,7.88
2024-03-02T04:42:08.930Z,8.35
2024-03-02T04:44:36.060Z,7.78
2024-03-02T04:47:02.376Z,7.60
2024-03-02T04:49:29.106Z,7.28
2024-03-02T04:51:55.845Z,8.30
2024-03-02T04:54:22.317Z,7.90
2024-03-02T04:56:48.654Z,7.78
2024-03-02T04:59:15.226Z,7.57
2024-03-02T05:01:41.827Z,8.35
2024-03-02T05:04:08.382Z,9.00
2024-03-02T05:06:34.987Z,8.15
2024-03-02T05:09:01.563Z,8.13
2024-03-02T05:11:27.897Z,8.23
2024-03-02T05:13:54.399Z,7.63
2024-03-02T05:16:20.941Z,7.43
2024-03-02T05:18:47.271Z,8.40
2024-03-02T05:21:13.642Z,9.52
2024-03-02T05:23:40.364Z,8.57
2024-03-02T05:26:06.672Z,9.75
2024-03-02T05:28:32.947Z,9.48
2024-03-02T05:30:59.618Z,10.10
2024-03-02T05:33:26.093Z,9.68
2024-03-02T05:35:52.470Z,10.20
2024-03-02T05:38:18.890Z,10.20
2024-03-02T05:40:45.222Z,9.90
2024-03-02T05:43:11.525Z,10.23
2024-03-02T05:45:38.155Z,8.88
2024-03-02T05:48:04.683Z,9.88
2024-03-02T05:50:31.922Z,9.18
2024-03-02T05:52:58.306Z,8.93
2024-03-02T05:55:24.855Z,8.90
2024-03-02T05:57:51.248Z,9.77
2024-03-02T06:00:17.763Z,9.02
2024-03-02T06:02:44.215Z,9.13
2024-03-02T06:05:10.893Z,11.10
2024-03-02T06:07:37.395Z,10.52
2024-03-02T06:10:04.173Z,10.77
2024-03-02T06:12:31.995Z,10.35
2024-03-02T06:14:58.385Z,11.27
2024-03-02T06:17:24.797Z,9.32
2024-03-02T06:19:51.105Z,10.90
2024-03-02T06:22:17.663Z,11.00
2024-03-02T06:24:44.244Z,10.43
2024-03-02T06:27:10.659Z,10.82
2024-03-02T06:29:36.985Z,10.80
2024-03-02T06:32:03.420Z,10.30
2024-03-02T06:34:29.704Z,10.55
2024-03-02T06:36:56.126Z,9.85
2024-03-02T06:39:22.509Z,9.50
2024-03-02T06:41:48.912Z,9.70
2024-03-02T06:44:15.498Z,10.38
2024-03-02T06:46:41.816Z,10.93
2024-03-02T06:49:08.144Z,12.48
2024-03-02T06:51:35.280Z,10.73
2024-03-02T06:54:01.686Z,10.55
2024-03-02T06:56:28.011Z,10.00
2024-03-02T06:58:54.572Z,10.48
2024-03-02T07:01:22.693Z,12.40
2024-03-02T07:03:51.075Z,10.10
2024-03-02T07:06:17.399Z,11.30
2024-03-02T07:08:43.758Z,10.05
2024-03-02T07:11:10.456Z,11.15
2024-03-02T07:13:37.044Z,10.35
2024-03-02T07:16:03.821Z,11.20
2024-03-02T07:18:30.575Z,10.40
2024-03-02T07:20:57.341Z,10.75
2024-03-02T07:23:23.897Z,11.27
2024-03-02T07:28:19.831Z,12.38
2024-03-02T07:30:46.200Z,13.10
2024-03-02T07:33:12.811Z,13.65
2024-03-02T07:35:39.268Z,13.93
2024-03-02T07:38:05.634Z,14.38
2024-03-02T07:40:31.961Z,17.25
2024-03-02T07:42:58.280Z,17.95
2024-03-02T07:45:24.756Z,18.60
2024-03-02T07:47:51.451Z,17.83
2024-03-02T07:50:18.022Z,17.85
2024-03-02T07:52:44.652Z,14.60
2024-03-02T07:55:11.261Z,13.95
2024-03-02T07:57:37.883Z,13.32
2024-03-02T08:00:04.376Z,13.32
2024-03-02T08:02:30.903Z,10.93
2024-03-02T08:04:57.463Z,10.60
2024-03-02T08:07:23.743Z,10.90
2024-03-02T08:09:50.410Z,11.43
2024-03-02T08:12:16.726Z,12.88
2024-03-02T08:14:43.057Z,11.30
2024-03-02T08:17:09.347Z,11.55
2024-03-02T08:19:35.777Z,11.27
2024-03-02T08:22:02.261Z,10.77
2024-03-02T08:24:29.326Z,10.48
2024-03-02T08:26:55.727Z,10.35
2024-03-02T08:29:22.008Z,11.15
2024-03-02T08:31:48.345Z,10.60
2024-03-02T08:34:14.927Z,9.23
2024-03-02T08:36:41.401Z,9.05
2024-03-02T08:39:08.723Z,8.43
2024-03-02T08:41:35.024Z,8.95
2024-03-02T08:44:01.831Z,8.07
2024-03-02T08:46:28.446Z,9.23
2024-03-02T08:48:55.116Z,7.82
2024-03-02T08:51:21.702Z,8.82
2024-03-02T08:53:48.106Z,8.85
2024-03-02T08:56:14.707Z,7.75
2024-03-02T08:58:41.020Z,8.40
2024-03-02T09:01:07.646Z,8.10
2024-03-02T09:03:34.286Z,8.65
2024-03-02T09:06:00.752Z,8.38
2024-03-02T09:08:27.328Z,9.68
2024-03-02T09:10:54.060Z,9.30
2024-03-02T09:13:20.378Z,8.25
2024-03-02T09:15:46.746Z,8.20
2024-03-02T09:18:13.689Z,8.48
2024-03-02T09:20:40.100Z,7.03
2024-03-02T09:23:06.407Z,7.88
2024-03-02T09:25:32.714Z,8.63
2024-03-02T09:27:59.272Z,7.97
2024-03-02T09:30:25.989Z,7.40
2024-03-02T09:32:52.495Z,6.95
2024-03-02T09:35:19.125Z,6.95
2024-03-02T09:37:45.991Z,6.75
2024-03-02T09:40:12.453Z,7.15
2024-03-02T09:42:38.882Z,6.47
2024-03-02T09:45:06.110Z,6.30
2024-03-02T09:47:32.491Z,7.75
2024-03-02T09:49:59.054Z,5.43
2024-03-02T09:52:25.395Z,7.35
2024-03-02T09:54:52.320Z,6.00
2024-03-02T09:57:18.708Z,5.88
2024-03-02T09:59:45.407Z,4.93
2024-03-02T10:02:12.009Z,5.05
2024-03-02T10:04:38.280Z,5.15
2024-03-02T10:07:17.789Z,6.15
2024-03-02T10:09:47.997Z,5.25
2024-03-02T10:12:15.475Z,4.97
2024-03-02T10:14:42.318Z,4.20
2024-03-02T10:17:12.551Z,4.28
2024-03-02T10:19:39.926Z,5.22
2024-03-02T10:22:07.499Z,4.85
2024-03-02T10:24:41.263Z,7.15
2024-03-02T10:27:17.617Z,4.60
2024-03-02T10:29:46.835Z,5.57
2024-03-02T10:32:13.235Z,4.85
2024-03-02T10:34:43.304Z,5.65
2024-03-02T10:37:11.511Z,4.63
2024-03-02T10:39:38.384Z,4.97
2024-03-02T10:42:04.907Z,4.43
2024-03-02T10:44:31.906Z,5.68
2024-03-02T10:47:00.338Z,4.72
2024-03-02T10:49:28.089Z,5.57
2024-03-02T10:51:54.435Z,4.70
2024-03-02T10:54:21.056Z,3.70
2024-03-02T10:56:47.763Z,3.72
2024-03-02T10:59:26.518Z,4.20
2024-03-02T11:01:55.182Z,3.80
2024-03-02T11:04:22.536Z,4.05
2024-03-02T11:06:52.501Z,3.72
2024-03-02T11:09:20.794Z,3.55
2024-03-02T11:11:50.809Z,2.95
2024-03-02T11:14:18.209Z,3.10
2024-03-02T11:16:45.147Z,3.75
2024-03-02T11:19:17.544Z,3.20
2024-03-02T11:21:45.137Z,4.13
2024-03-02T11:24:23.649Z,4.07
2024-03-02T11:26:50.094Z,2.42
2024-03-02T11:29:35.217Z,2.70
2024-03-02T11:32:02.048Z,3.08
2024-03-02T11:34:32.372Z,3.17
2024-03-02T11:36:59.558Z,2.70
2024-03-02T11:41:53.681Z,3.05
2024-03-02T11:44:20.441Z,3.75
2024-03-02T11:46:52.876Z,4.82
2024-03-02T11:49:21.904Z,3.00
2024-03-02T11:52:01.353Z,3.50
2024-03-02T11:54:30.472Z,2.00
2024-03-02T11:56:57.437Z,2.90
2024-03-02T11:59:24.492Z,2.63
2024-03-02T12:01:50.968Z,3.03
2024-03-02T12:04:17.320Z,2.45
2024-03-02T12:06:43.645Z,3.65
2024-03-02T12:09:11.022Z,2.67
2024-03-02T12:11:37.585Z,3.05
2024-03-02T12:14:03.948Z,3.03
2024-03-02T12:16:30.463Z,2.63
2024-03-02T12:18:56.773Z,2.13
2024-03-02T12:21:23.193Z,2.47
2024-03-02T12:23:49.558Z,4.85
2024-03-02T12:26:16.116Z,3.67
2024-03-02T12:28:42.414Z,3.95
2024-03-02T12:31:08.887Z,2.60
2024-03-02T12:33:35.354Z,3.42
2024-03-02T12:36:01.993Z,3.03
2024-03-02T12:38:28.299Z,2.53
2024-03-02T12:40:54.585Z,3.03
2024-03-02T12:43:21.143Z,2.58
2024-03-02T12:45:47.987Z,4.40
2024-03-02T12:48:14.431Z,3.58
2024-03-02T12:50:40.858Z,3.30
2024-03-02T12:53:07.434Z,1.95
2024-03-02T12:55:33.755Z,3.15
2024-03-02T12:58:01.241Z,3.35
2024-03-02T13:00:27.631Z,3.80
2024-03-02T13:02:53.956Z,3.33
2024-03-02T13:05:21.257Z,2.85
2024-03-02T13:07:48.251Z,3.20
2024-03-02T13:10:14.714Z,2.50
2024-03-02T13:12:41.560Z,3.47
2024-03-02T13:15:09.381Z,2.75
2024-03-02T13:17:38.118Z,3.35
2024-03-02T13:20:05.542Z,3.65
2024-03-02T13:22:31.843Z,3.28
2024-03-02T13:24:58.162Z,3.53
2024-03-02T13:27:24.590Z,2.05
2024-03-02T13:29:51.088Z,3.15
2024-03-02T13:32:17.693Z,2.00
2024-03-02T13:34:44.286Z,3.67
2024-03-02T13:37:10.842Z,2.03
2024-03-02T13:39:37.425Z,2.58
2024-03-02T13:42:03.842Z,2.15
2024-03-02T13:44:30.521Z,2.35
2024-03-02T13:46:57.095Z,3.28
2024-03-02T13:49:23.407Z,2.17
2024-03-02T13:51:49.857Z,2.72
2024-03-02T13:54:16.421Z,3.25
2024-03-02T13:56:42.810Z,2.40
2024-03-02T13:59:09.778Z,2.58
2024-03-02T14:04:02.616Z,2.50
2024-03-02T14:06:28.966Z,2.35
2024-03-02T14:08:55.305Z,2.97
2024-03-02T14:11:21.943Z,2.95
2024-03-02T14:13:48.250Z,3.35
2024-03-02T14:16:14.829Z,1.90
2024-03-02T14:18:41.211Z,2.80
2024-03-02T14:21:07.832Z,2.15
2024-03-02T14:23:34.166Z,2.10
2024-03-02T14:26:00.690Z,3.10
2024-03-02T14:28:43.904Z,1.92
2024-03-02T14:31:13.542Z,2.63
2024-03-02T14:33:39.965Z,2.13
2024-03-02T14:36:06.722Z,2.38
2024-03-02T14:38:33.293Z,3.10
2024-03-02T14:40:59.652Z,2.85
2024-03-02T14:43:25.958Z,2.25
2024-03-02T14:45:52.381Z,3.92
2024-03-02T14:48:19.267Z,2.78
2024-03-02T14:50:45.554Z,3.83
2024-03-02T14:53:11.838Z,1.80
2024-03-02T14:55:38.399Z,1.67
2024-03-02T14:58:04.787Z,2.08
2024-03-02T15:00:31.116Z,2.58
2024-03-02T15:02:57.506Z,3.03
2024-03-02T15:05:24.073Z,2.15
2024-03-02T15:07:50.358Z,2.83
2024-03-02T15:10:16.711Z,2.60
2024-03-02T15:12:43.278Z,2.40
2024-03-02T15:15:09.774Z,2.30
2024-03-02T15:17:36.194Z,2.20
2024-03-02T15:20:02.653Z,2.80
2024-03-02T15:22:28.994Z,2.17
2024-03-02T15:24:55.378Z,3.25
2024-03-02T15:27:21.663Z,2.03
2024-03-02T15:29:47.989Z,2.13
2024-03-02T15:32:14.380Z,2.33
2024-03-02T15:34:40.931Z,1.92
2024-03-02T15:37:07.384Z,1.50
2024-03-02T15:39:33.759Z,1.77
2024-03-02T15:42:00.369Z,3.30
2024-03-02T15:44:26.939Z,1.88
2024-03-02T15:46:53.397Z,3.47
2024-03-02T15:49:21.673Z,1.98
2024-03-02T15:51:48.499Z,3.25
2024-03-02T15:54:15.069Z,1.92
2024-03-02T15:56:41.823Z,1.75
2024-03-02T15:59:08.130Z,2.35
2024-03-02T16:01:34.645Z,2.35
2024-03-02T16:04:01.132Z,3.03
2024-03-02T16:06:27.579Z,2.05
2024-03-02T16:08:55.025Z,2.65
2024-03-02T16:11:21.656Z,1.92
2024-03-02T16:13:48.279Z,2.60
2024-03-02T16:16:14.889Z,1.80
2024-03-02T16:18:41.224Z,2.15
2024-03-02T16:21:07.585Z,2.42
2024-03-02T16:23:33.865Z,2.28
2024-03-02T16:26:00.823Z,2.70
2024-03-02T16:28:27.284Z,2.53
2024-03-02T16:30:53.970Z,3.22
2024-03-02T16:33:20.252Z,2.58
2024-03-02T16:35:46.592Z,2.38
2024-03-02T16:38:12.887Z,2.08
2024-03-02T16:40:39.264Z,2.03
2024-03-02T16:43:05.745Z,3.83
2024-03-02T16:45:32.155Z,3.30
2024-03-02T16:47:58.794Z,3.85
2024-03-02T16:50:25.144Z,3.10
2024-03-02T16:52:51.430Z,3.03
2024-03-02T16:55:18.204Z,2.67
2024-03-02T16:57:44.681Z,2.35
2024-03-02T17:00:11.342Z,3.53
2024-03-02T17:02:37.782Z,2.45
2024-03-02T17:05:04.595Z,3.47
2024-03-02T17:07:30.945Z,3.30
2024-03-02T17:09:57.531Z,4.00
2024-03-02T17:12:24.382Z,2.58
2024-03-02T17:14:50.962Z,2.42
2024-03-02T17:17:17.516Z,2.53
2024-03-02T17:19:44.314Z,2.95
2024-03-02T17:22:10.839Z,3.55
2024-03-02T17:24:37.315Z,2.78
2024-03-02T17:27:04.332Z,2.80
2024-03-02T17:29:30.899Z,2.60
2024-03-02T17:31:57.200Z,3.53
2024-03-02T17:34:23.545Z,2.60
2024-03-02T17:36:50.172Z,2.83
2024-03-02T17:39:16.717Z,3.53
2024-03-02T17:41:43.105Z,3.55
2024-03-02T17:44:09.425Z,4.53
2024-03-02T17:46:35.998Z,3.53
2024-03-02T17:49:02.775Z,4.28
2024-03-02T17:51:29.429Z,3.85
2024-03-02T17:53:56.039Z,3.50
2024-03-02T17:56:22.745Z,3.08
2024-03-02T17:58:49.000Z,2.95
2024-03-02T18:01:16.130Z,2.70
2024-03-02T18:03:42.756Z,2.95
2024-03-02T18:06:09.110Z,4.07
2024-03-02T18:08:38.654Z,2.60
2024-03-02T18:11:05.842Z,2.95
2024-03-02T18:13:32.090Z,3.15
2024-03-02T18:15:58.449Z,3.03
2024-03-02T18:18:24.803Z,4.10
2024-03-02T18:20:51.214Z,2.88
2024-03-02T18:23:17.542Z,3.35
2024-03-02T18:25:43.933Z,3.20
2024-03-02T18:28:10.620Z,3.92
2024-03-02T18:30:37.027Z,3.30
2024-03-02T18:33:03.581Z,5.57
2024-03-02T18:35:30.173Z,5.68
2024-03-02T18:37:56.754Z,4.03
2024-03-02T18:40:23.165Z,4.72
2024-03-02T18:42:49.765Z,4.05
2024-03-02T18:45:16.149Z,5.05
2024-03-02T18:47:44.918Z,3.95
2024-03-02T18:50:11.354Z,4.07
2024-03-02T18:52:38.119Z,2.95
2024-03-02T18:55:05.244Z,3.00
2024-03-02T18:57:31.693Z,4.00
2024-03-02T18:59:59.027Z,2.53
2024-03-02T19:02:25.580Z,2.55
2024-03-02T19:04:52.689Z,2.40
2024-03-02T19:07:19.484Z,3.45
2024-03-02T19:09:45.930Z,2.80
2024-03-02T19:12:12.302Z,3.67
2024-03-02T19:14:38.632Z,2.83
2024-03-02T19:17:05.173Z,4.90
2024-03-02T19:19:31.682Z,2.85
2024-03-02T19:22:02.596Z,2.70
2024-03-02T19:24:40.449Z,3.15
2024-03-02T19:27:06.900Z,3.05
2024-03-02T19:29:33.416Z,4.03
2024-03-02T19:32:05.097Z,3.00
2024-03-02T19:34:34.489Z,4.18
2024-03-02T19:37:00.825Z,2.88
2024-03-02T19:39:27.216Z,3.05
2024-03-02T19:41:53.821Z,3.38
2024-03-02T19:44:20.102Z,6.43
2024-03-02T19:46:46.403Z,4.28
2024-03-02T19:49:13.045Z,4.85
2024-03-02T19:51:39.476Z,5.68
2024-03-02T19:54:05.819Z,9.90
2024-03-02T19:56:32.415Z,4.82
2024-03-02T19:58:58.963Z,3.60
2024-03-02T20:01:26.005Z,4.20
2024-03-02T20:03:52.421Z,5.20
2024-03-02T20:06:19.242Z,6.05
2024-03-02T20:08:45.551Z,5.20
2024-03-02T20:11:12.101Z,7.35
2024-03-02T20:13:38.796Z,6.35
2024-03-02T20:16:08.673Z,5.90
2024-03-02T20:18:35.121Z,6.22
2024-03-02T20:21:01.448Z,6.95
2024-03-02T20:23:27.819Z,5.43
2024-03-02T20:25:54.091Z,6.60
2024-03-02T20:28:20.473Z,8.27
2024-03-02T20:30:46.860Z,6.95
2024-03-02T20:33:13.335Z,8.23
2024-03-02T20:35:39.705Z,7.85
2024-03-02T20:38:06.271Z,6.78
2024-03-02T20:40:32.808Z,7.53
2024-03-02T20:43:01.077Z,5.90
2024-03-02T20:45:27.404Z,6.65
2024-03-02T20:47:53.980Z,6.75
2024-03-02T20:50:20.286Z,6.43
2024-03-02T20:52:46.594Z,5.97
2024-03-02T20:55:13.246Z,7.13
2024-03-02T20:57:42.440Z,7.50
2024-03-02T21:00:09.196Z,7.20
2024-03-02T21:02:35.553Z,6.80
2024-03-02T21:05:02.388Z,8.63
2024-03-02T21:07:28.801Z,8.30
2024-03-02T21:09:55.224Z,7.43
2024-03-02T21:12:21.843Z,8.10
2024-03-02T21:14:48.203Z,7.78
2024-03-02T21:17:14.770Z,7.53
2024-03-02T21:19:41.104Z,7.28
2024-03-02T21:22:07.766Z,7.63
2024-03-02T21:24:34.398Z,7.80
2024-03-02T21:27:01.327Z,8.68
2024-03-02T21:29:27.732Z,8.90
2024-03-02T21:31:54.034Z,8.38
2024-03-02T21:34:20.503Z,7.75
2024-03-02T21:36:46.839Z,7.53
2024-03-02T21:39:13.150Z,6.25
2024-03-02T21:41:39.781Z,6.43
2024-03-02T21:44:06.336Z,6.03
2024-03-02T21:46:32.727Z,5.88
2024-03-02T21:48:59.155Z,5.22
2024-03-02T21:51:25.579Z,6.75
2024-03-02T21:53:51.957Z,5.47
2024-03-02T21:56:18.400Z,5.88
2024-03-02T21:58:44.669Z,5.53
2024-03-02T22:01:12.152Z,5.28
2024-03-02T22:06:04.763Z,8.38
2024-03-02T22:08:31.323Z,7.35
2024-03-02T22:10:57.651Z,5.75
2024-03-02T22:13:24.025Z,6.75
2024-03-02T22:15:50.709Z,5.90
2024-03-02T22:18:17.064Z,5.78
2024-03-02T22:20:43.433Z,5.53
2024-03-02T22:23:09.704Z,5.20
2024-03-02T22:25:36.023Z,5.15
2024-03-02T22:28:02.349Z,6.53
2024-03-02T22:30:28.711Z,7.88
2024-03-02T22:32:55.049Z,5.78
2024-03-02T22:35:23.829Z,6.60
2024-03-02T22:37:50.483Z,5.80
2024-03-02T22:40:16.801Z,6.68
2024-03-02T22:42:43.333Z,6.53
2024-03-02T22:45:10.099Z,6.60
2024-03-02T22:47:36.462Z,6.40
2024-03-02T22:50:02.840Z,6.28
2024-03-02T22:52:29.144Z,6.90
2024-03-02T22:54:55.467Z,7.05
2024-03-02T22:57:21.756Z,8.50
2024-03-02T22:59:51.283Z,6.93
2024-03-02T23:02:18.294Z,7.63
2024-03-02T23:04:45.492Z,7.88
2024-03-02T23:07:12.206Z,6.70
2024-03-02T23:09:38.518Z,7.35
2024-03-02T23:12:05.151Z,6.07
2024-03-02T23:14:31.671Z,8.00
2024-03-02T23:16:57.973Z,6.80
2024-03-02T23:19:24.555Z,8.25
2024-03-02T23:21:51.044Z,7.35
2024-03-02T23:24:18.770Z,8.43
2024-03-02T23:26:45.549Z,8.07
2024-03-02T23:29:11.814Z,8.20
2024-03-02T23:31:38.443Z,8.82
2024-03-02T23:34:04.871Z,7.28
2024-03-02T23:36:31.537Z,10.35
2024-03-02T23:38:58.508Z,8.80
2024-03-02T23:41:25.072Z,9.32
2024-03-02T23:43:51.681Z,8.60
2024-03-02T23:46:18.089Z,8.32
2024-03-02T23:48:44.525Z,9.60
2024-03-02T23:51:11.095Z,9.32
2024-03-02T23:53:37.644Z,10.25
2024-03-02T23:56:11.073Z,9.02
2024-03-02T23:58:37.453Z,11.80
